Jacobabad Weather



Jacobabad's Current Weather

Temprature 19.94o overcast clouds

overcast clouds

Rain: 0 %

Min Temprature19.94o
Max Temprature19.94o
Humidity32
Wind Speed6.96 m/h
Sun Rise07:08:32
Sun Set17:31:05
Current Time: 12-Dec-2019 01:28:48
Lat/Lon: 28.29, 68.44




Jacobabad's Geo Location



Jacobabad's Weather Forecast

Time Overall Temp Min Temp Max Temp Humidity Wind Speed Rain
12-Dec-2019 (Thu)
02:00:00 overcast clouds 19.940 19.940 19.940 32 6.96 m/h 0 %
05:00:00 overcast clouds 17.740 17.740 17.740 51 4.64 m/h 0 %
08:00:00 light rain 14.930 14.930 14.930 79 2.61 m/h 188 %
11:00:00 light rain 17.580 17.580 17.580 62 3.65 m/h 6 %
14:00:00 broken clouds 19.530 19.530 19.530 51 3.74 m/h 0 %
17:00:00 broken clouds 18.660 18.660 18.660 51 2.84 m/h 0 %
20:00:00 clear sky 15.950 15.950 15.950 55 3.27 m/h 0 %
23:00:00 clear sky 14.530 14.530 14.530 61 3.4 m/h 0 %
13-Dec-2019 (Fri)
02:00:00 clear sky 13.020 13.020 13.020 68 3.26 m/h 0 %
05:00:00 clear sky 11.870 11.870 11.870 70 2.22 m/h 0 %
08:00:00 clear sky 12.570 12.570 12.570 67 1.41 m/h 0 %
11:00:00 clear sky 17.370 17.370 17.370 48 0.59 m/h 0 %
14:00:00 clear sky 20.420 20.420 20.420 39 2.6 m/h 0 %
17:00:00 clear sky 19.440 19.440 19.440 38 1.92 m/h 0 %
20:00:00 clear sky 15.450 15.450 15.450 50 1.34 m/h 0 %
23:00:00 scattered clouds 15.450 15.450 15.450 50 2.46 m/h 0 %
14-Dec-2019 (Sat)
02:00:00 clear sky 13.120 13.120 13.120 56 0.29 m/h 0 %
05:00:00 clear sky 12.410 12.410 12.410 58 0.07 m/h 0 %
08:00:00 clear sky 13.980 13.980 13.980 54 0.28 m/h 0 %
11:00:00 clear sky 20.850 20.850 20.850 33 0.59 m/h 0 %
14:00:00 scattered clouds 22.780 22.780 22.780 30 1.21 m/h 0 %
17:00:00 scattered clouds 21.710 21.710 21.710 32 2.98 m/h 0 %
20:00:00 overcast clouds 18.910 18.910 18.910 34 3.6 m/h 0 %
23:00:00 overcast clouds 18.560 18.560 18.560 35 2.06 m/h 0 %
15-Dec-2019 (Sun)
02:00:00 broken clouds 17.200 17.200 17.200 40 2.82 m/h 0 %
05:00:00 broken clouds 17.090 17.090 17.090 41 2.8 m/h 0 %
08:00:00 overcast clouds 17.310 17.310 17.310 41 2.32 m/h 0 %
11:00:00 overcast clouds 19.280 19.280 19.280 39 3.41 m/h 0 %
14:00:00 broken clouds 21.580 21.580 21.580 33 2.71 m/h 0 %
17:00:00 scattered clouds 20.580 20.580 20.580 35 2.02 m/h 0 %
20:00:00 clear sky 17.240 17.240 17.240 42 1.88 m/h 0 %
23:00:00 clear sky 16.710 16.710 16.710 43 2.4 m/h 0 %
16-Dec-2019 (Mon)
02:00:00 clear sky 14.970 14.970 14.970 49 2 m/h 0 %
05:00:00 clear sky 13.960 13.960 13.960 53 2.09 m/h 0 %
08:00:00 clear sky 14.710 14.710 14.710 52 1.98 m/h 0 %
11:00:00 clear sky 20.400 20.400 20.400 35 1.25 m/h 0 %
14:00:00 clear sky 22.460 22.460 22.460 30 1.23 m/h 0 %
17:00:00 clear sky 21.350 21.350 21.350 33 3.1 m/h 0 %
20:00:00 clear sky 17.860 17.860 17.860 42 2.63 m/h 0 %
23:00:00 clear sky 16.130 16.130 16.130 47 1.97 m/h 0 %

Famous Cities (61)